Time;durP1;ratioP1;P1;durP2;ratioP2;P2;SDS_P1;SDS_P2;PMS_P1;PMS_P2;Temp;Humidity;BMP_temperature;BMP_pressure;BME280_temperature;BME280_humidity;BME280_pressure;Samples;Min_cycle;Max_cycle;Signal;HPM_P1;HPM_P2
2021/05/20 00:00:02;;;;;;;4.10;3.60;;;13.40;11.70;;;;;;5096417;28;20925;-67
2021/05/20 00:02:30;;;;;;;3.67;3.37;;;13.40;16.90;;;;;;5096079;28;20485;-67
2021/05/20 00:04:56;;;;;;;3.20;2.90;;;13.40;84.50;;;;;;5095851;28;20464;-67
2021/05/20 00:07:22;;;;;;;3.57;3.27;;;13.40;55.90;;;;;;5098389;28;20917;-67
2021/05/20 00:09:49;;;;;;;3.03;2.83;;;13.30;99.90;;;;;;5095403;28;20461;-67
2021/05/20 00:12:15;;;;;;;3.50;2.90;;;13.30;99.90;;;;;;5095645;28;20457;-67
2021/05/20 00:14:41;;;;;;;3.37;3.07;;;13.20;99.90;;;;;;5095693;28;20453;-67
2021/05/20 00:17:08;;;;;;;2.93;2.73;;;13.20;99.90;;;;;;5095613;28;20454;-67
2021/05/20 00:19:35;;;;;;;3.13;2.60;;;13.20;99.90;;;;;;5095954;28;20464;-67
2021/05/20 00:22:01;;;;;;;3.03;2.83;;;13.20;99.90;;;;;;5095630;28;20488;-67
2021/05/20 00:24:27;;;;;;;3.03;2.63;;;13.20;99.90;;;;;;5095836;28;20460;-67
2021/05/20 00:26:54;;;;;;;3.50;3.20;;;13.20;99.90;;;;;;5095884;28;20476;-67
2021/05/20 00:29:20;;;;;;;3.60;3.10;;;13.10;1.00;;;;;;5095147;28;20563;-67
2021/05/20 00:31:46;;;;;;;4.43;3.50;;;13.10;1.00;;;;;;5095066;28;20474;-67
2021/05/20 00:34:12;;;;;;;3.50;2.90;;;13.00;99.90;;;;;;5095133;28;20491;-67
2021/05/20 00:36:39;;;;;;;3.67;3.37;;;13.00;1.00;;;;;;5095072;28;20740;-66
2021/05/20 00:39:06;;;;;;;3.00;2.70;;;12.90;1.00;;;;;;5095078;28;20780;-66
2021/05/20 00:41:32;;;;;;;3.63;3.17;;;12.90;99.90;;;;;;5095192;28;20793;-66
2021/05/20 00:43:59;;;;;;;3.07;2.87;;;12.80;99.90;;;;;;5094615;28;20553;-67
2021/05/20 00:46:25;;;;;;;3.03;2.80;;;12.80;1.00;;;;;;5095306;28;20532;-66
2021/05/20 00:48:52;;;;;;;3.57;3.27;;;12.70;26.40;;;;;;5095189;28;20468;-67
2021/05/20 00:51:21;;;;;;;3.90;3.60;;;12.70;99.90;;;;;;5095413;28;20461;-66
2021/05/20 00:53:49;;;;;;;4.00;3.10;;;12.60;1.00;;;;;;5094755;28;20468;-67
2021/05/20 00:56:17;;;;;;;4.27;3.10;;;12.60;1.00;;;;;;5096783;28;20774;-68
2021/05/20 00:58:45;;;;;;;3.10;2.90;;;12.60;1.00;;;;;;5097466;28;20818;-67
2021/05/20 01:01:12;;;;;;;3.40;3.10;;;12.60;1.00;;;;;;5096949;28;20454;-67
2021/05/20 01:03:39;;;;;;;3.67;3.13;;;12.60;1.00;;;;;;5094958;28;20481;-67
2021/05/20 01:06:05;;;;;;;3.10;2.80;;;12.50;99.90;;;;;;5095601;28;20523;-67
2021/05/20 01:08:32;;;;;;;3.80;3.50;;;12.50;99.90;;;;;;5095052;28;20468;-67
2021/05/20 01:11:00;;;;;;;3.73;3.43;;;12.50;1.00;;;;;;5095036;28;20457;-67
2021/05/20 01:13:26;;;;;;;3.40;3.10;;;12.50;1.00;;;;;;5094426;28;20970;-67
2021/05/20 01:15:52;;;;;;;3.20;2.90;;;12.40;99.90;;;;;;5094521;28;20457;-67
2021/05/20 01:18:18;;;;;;;3.23;3.03;;;12.40;99.90;;;;;;5094163;28;20453;-67
2021/05/20 01:20:46;;;;;;;3.40;3.10;;;12.40;99.90;;;;;;5098386;28;20920;-67
2021/05/20 01:23:14;;;;;;;3.23;2.90;;;12.30;1.00;;;;;;5098333;28;20473;-67
2021/05/20 01:25:42;;;;;;;3.27;3.07;;;12.30;1.00;;;;;;5098762;28;20526;-67
2021/05/20 01:28:11;;;;;;;4.73;3.10;;;12.30;1.00;;;;;;5098435;28;20480;-68
2021/05/20 01:30:40;;;;;;;3.27;3.03;;;12.30;1.00;;;;;;5098776;28;20766;-67
2021/05/20 01:33:08;;;;;;;3.07;2.80;;;12.20;99.90;;;;;;5098000;28;20503;-67
2021/05/20 01:35:34;;;;;;;2.93;2.73;;;12.20;99.90;;;;;;5098401;28;20456;-67
2021/05/20 01:38:31;;;;;;;4.90;2.90;;;12.20;99.90;;;;;;5098474;28;20457;-67
2021/05/20 01:41:00;;;;;;;2.70;2.50;;;12.20;99.90;;;;;;5098278;28;20445;-67
2021/05/20 01:43:27;;;;;;;3.10;2.90;;;12.20;99.90;;;;;;5098482;28;20481;-69
2021/05/20 01:45:57;;;;;;;2.93;2.70;;;12.20;99.90;;;;;;5098244;28;20487;-67
2021/05/20 01:48:24;;;;;;;3.40;2.70;;;12.20;99.90;;;;;;5097848;28;20569;-67
2021/05/20 01:50:50;;;;;;;3.70;2.73;;;12.20;99.90;;;;;;5098208;28;20453;-67
2021/05/20 01:53:17;;;;;;;2.70;2.50;;;12.30;99.90;;;;;;5098519;28;20487;-68
2021/05/20 01:55:44;;;;;;;2.90;2.70;;;12.30;99.90;;;;;;5098136;28;20457;-68
2021/05/20 01:58:10;;;;;;;3.20;3.00;;;12.40;1.00;;;;;;5098048;28;20484;-68
2021/05/20 02:00:36;;;;;;;2.87;2.67;;;12.40;99.90;;;;;;5097962;28;20553;-66
2021/05/20 02:03:03;;;;;;;3.20;2.90;;;12.40;24.70;;;;;;5097929;28;20477;-66
2021/05/20 02:05:29;;;;;;;4.90;2.73;;;12.40;58.70;;;;;;5097750;28;20499;-66
2021/05/20 02:07:55;;;;;;;2.97;2.63;;;12.30;1.00;;;;;;5098413;28;20460;-66
2021/05/20 02:10:22;;;;;;;3.30;3.00;;;12.30;1.00;;;;;;5097729;28;20449;-67
2021/05/20 02:12:48;;;;;;;4.70;2.83;;;12.30;1.00;;;;;;5098166;28;20461;-66
2021/05/20 02:15:15;;;;;;;3.00;2.70;;;12.20;1.00;;;;;;5098057;28;20464;-66
2021/05/20 02:17:41;;;;;;;3.13;2.87;;;12.20;1.00;;;;;;5097544;28;20471;-66
2021/05/20 02:20:08;;;;;;;12.37;4.00;;;12.20;1.00;;;;;;5097198;28;20821;-66
2021/05/20 02:22:35;;;;;;;3.00;2.67;;;12.20;1.00;;;;;;5097476;28;20806;-68
2021/05/20 02:25:03;;;;;;;3.00;2.70;;;12.20;1.00;;;;;;5098008;28;20559;-66
2021/05/20 02:27:30;;;;;;;3.10;2.80;;;12.20;1.00;;;;;;5097554;28;20929;-68
2021/05/20 02:29:56;;;;;;;3.37;3.07;;;12.20;1.00;;;;;;5097135;28;20747;-67
2021/05/20 02:32:22;;;;;;;3.13;2.87;;;12.10;1.00;;;;;;5096195;28;20999;-67
2021/05/20 02:34:49;;;;;;;3.17;2.87;;;12.10;1.00;;;;;;5096896;28;20457;-67
2021/05/20 02:37:15;;;;;;;3.17;2.90;;;12.10;1.00;;;;;;5097227;28;20450;-67
2021/05/20 02:39:41;;;;;;;2.90;2.70;;;12.10;1.00;;;;;;5097499;28;20461;-67
2021/05/20 02:42:08;;;;;;;3.63;3.07;;;12.10;1.00;;;;;;5096863;28;20473;-67
2021/05/20 02:44:35;;;;;;;3.17;2.80;;;12.20;1.00;;;;;;5096900;28;20453;-67
2021/05/20 02:47:01;;;;;;;3.60;2.60;;;12.20;1.00;;;;;;5097991;28;20522;-67
2021/05/20 02:49:28;;;;;;;2.80;2.60;;;12.20;1.00;;;;;;5097024;28;20493;-67
2021/05/20 02:51:54;;;;;;;3.40;3.10;;;12.20;1.00;;;;;;5097499;28;20461;-67
2021/05/20 02:54:20;;;;;;;3.17;2.97;;;12.10;1.00;;;;;;5097276;28;20797;-67
2021/05/20 02:56:47;;;;;;;3.13;2.83;;;12.10;1.00;;;;;;5097395;28;20793;-67
2021/05/20 02:59:16;;;;;;;3.40;2.73;;;12.10;1.00;;;;;;5097218;28;20464;-67
2021/05/20 03:01:47;;;;;;;2.87;2.63;;;12.10;1.00;;;;;;5096762;28;20453;-67
2021/05/20 03:04:13;;;;;;;3.50;3.20;;;12.00;1.00;;;;;;5096884;28;20579;-67
2021/05/20 03:06:41;;;;;;;3.80;3.50;;;12.00;1.00;;;;;;5096296;28;20461;-67
2021/05/20 03:09:10;;;;;;;2.87;2.67;;;12.00;1.00;;;;;;5097374;28;20453;-67
2021/05/20 03:11:36;;;;;;;4.13;3.03;;;12.00;1.00;;;;;;5099224;28;20461;-67
2021/05/20 03:14:03;;;;;;;3.83;3.53;;;11.90;1.00;;;;;;5098281;28;20453;-67
2021/05/20 03:16:29;;;;;;;3.70;3.40;;;11.90;1.00;;;;;;5096600;28;20464;-67
2021/05/20 03:18:56;;;;;;;3.87;3.57;;;11.90;1.00;;;;;;5096809;28;20457;-67
2021/05/20 03:21:22;;;;;;;3.53;3.23;;;11.90;1.00;;;;;;5096593;28;20457;-67
2021/05/20 03:23:48;;;;;;;4.10;3.80;;;11.90;1.00;;;;;;5096526;28;20484;-67
2021/05/20 03:26:15;;;;;;;3.67;3.37;;;11.90;1.00;;;;;;5096471;28;20472;-67
2021/05/20 03:28:41;;;;;;;4.20;3.40;;;11.90;1.00;;;;;;5096869;28;20518;-67
2021/05/20 03:31:10;;;;;;;4.00;3.70;;;11.90;1.00;;;;;;5095961;28;20449;-67
2021/05/20 03:33:40;;;;;;;3.90;3.60;;;11.80;1.00;;;;;;5095997;28;20488;-66
2021/05/20 03:36:08;;;;;;;4.10;3.80;;;11.80;1.00;;;;;;5096331;28;20450;-67
2021/05/20 03:38:34;;;;;;;4.40;4.00;;;11.80;1.00;;;;;;5096298;28;20453;-68
2021/05/20 03:41:01;;;;;;;4.13;3.83;;;11.80;1.00;;;;;;5095968;28;20522;-66
2021/05/20 03:43:30;;;;;;;4.33;3.40;;;11.80;1.00;;;;;;5095808;28;20480;-66
2021/05/20 03:45:56;;;;;;;6.17;3.50;;;11.90;1.00;;;;;;5095944;28;20868;-67
2021/05/20 03:48:23;;;;;;;4.30;3.70;;;11.80;1.00;;;;;;5096086;28;20472;-66
2021/05/20 03:50:49;;;;;;;4.47;4.07;;;11.90;6.90;;;;;;5095826;28;20461;-67
2021/05/20 03:53:16;;;;;;;4.43;4.03;;;11.90;1.00;;;;;;5096149;28;20457;-67
2021/05/20 03:55:42;;;;;;;4.30;4.00;;;12.00;1.00;;;;;;5095435;28;20457;-67
2021/05/20 03:58:08;;;;;;;5.53;4.20;;;12.00;39.60;;;;;;5095573;28;20893;-67
2021/05/20 04:00:35;;;;;;;5.63;4.10;;;12.00;99.90;;;;;;5095524;28;20461;-66
2021/05/20 04:03:01;;;;;;;4.27;3.97;;;11.90;99.90;;;;;;5095388;28;20977;-67
2021/05/20 04:05:27;;;;;;;5.00;4.47;;;11.80;99.90;;;;;;5095528;28;20941;-67
2021/05/20 04:07:53;;;;;;;5.90;4.47;;;11.80;99.90;;;;;;5095751;28;20458;-67
2021/05/20 04:10:21;;;;;;;4.33;4.03;;;11.70;99.90;;;;;;5095386;28;20457;-67
2021/05/20 04:12:47;;;;;;;4.80;4.40;;;11.70;99.90;;;;;;5096026;28;20445;-67
2021/05/20 04:15:14;;;;;;;3.70;3.40;;;11.80;99.90;;;;;;5095454;28;20925;-66
2021/05/20 04:17:40;;;;;;;4.17;3.87;;;11.80;99.90;;;;;;5095610;28;20454;-67
2021/05/20 04:20:07;;;;;;;4.77;4.30;;;11.90;99.90;;;;;;5095569;28;20461;-67
2021/05/20 04:22:33;;;;;;;6.37;4.57;;;11.80;99.90;;;;;;5095358;28;20481;-67
2021/05/20 04:25:00;;;;;;;4.33;3.93;;;11.80;99.90;;;;;;5095356;28;20480;-67
2021/05/20 04:27:28;;;;;;;6.10;4.50;;;11.80;99.90;;;;;;5095208;28;20449;-67
2021/05/20 04:29:56;;;;;;;5.00;4.50;;;11.90;99.90;;;;;;5095218;28;20492;-67
2021/05/20 04:32:22;;;;;;;7.40;5.40;;;11.80;99.90;;;;;;5095237;28;20477;-67
2021/05/20 04:34:48;;;;;;;5.60;5.20;;;11.80;99.90;;;;;;5095315;28;20771;-67
2021/05/20 04:37:14;;;;;;;5.20;4.80;;;11.70;99.90;;;;;;5095293;28;20453;-67
2021/05/20 04:39:42;;;;;;;5.07;4.60;;;11.70;99.90;;;;;;5095209;28;20638;-68
2021/05/20 04:42:08;;;;;;;5.60;5.00;;;11.60;99.90;;;;;;5094925;28;20863;-67
2021/05/20 04:44:35;;;;;;;6.23;4.87;;;11.60;99.90;;;;;;5095270;28;20755;-67
2021/05/20 04:47:02;;;;;;;5.63;5.13;;;11.60;99.90;;;;;;5095197;28;20745;-67
2021/05/20 04:49:28;;;;;;;7.60;5.50;;;11.70;99.90;;;;;;5094873;28;20464;-67
2021/05/20 04:51:54;;;;;;;5.13;4.60;;;11.70;99.90;;;;;;5094976;28;20457;-67
2021/05/20 04:54:20;;;;;;;5.87;5.30;;;11.70;99.90;;;;;;5094078;28;20468;-67
2021/05/20 04:56:47;;;;;;;6.17;5.63;;;11.70;99.90;;;;;;5094887;28;20454;-67
2021/05/20 04:59:13;;;;;;;6.93;5.70;;;11.70;99.90;;;;;;5094490;28;20762;-67
2021/05/20 05:01:40;;;;;;;6.00;5.50;;;11.70;99.90;;;;;;5094595;28;20457;-67
2021/05/20 05:04:06;;;;;;;6.57;5.87;;;11.80;99.90;;;;;;5094867;28;20536;-67
2021/05/20 05:06:32;;;;;;;6.27;5.67;;;11.80;99.90;;;;;;5094278;28;20499;-67
2021/05/20 05:08:59;;;;;;;6.50;5.33;;;11.90;99.90;;;;;;5094533;28;20503;-67
2021/05/20 05:11:26;;;;;;;6.30;5.70;;;11.90;99.90;;;;;;5095053;28;20458;-69
2021/05/20 05:13:53;;;;;;;9.33;5.77;;;11.90;99.90;;;;;;5094767;28;20453;-68
2021/05/20 05:16:22;;;;;;;7.30;5.90;;;12.00;99.90;;;;;;5094644;28;20479;-67
2021/05/20 05:18:49;;;;;;;6.63;6.03;;;12.00;99.90;;;;;;5094926;28;20454;-67
2021/05/20 05:21:15;;;;;;;6.47;5.87;;;12.00;99.90;;;;;;5094297;28;20457;-67
2021/05/20 05:23:41;;;;;;;6.47;5.77;;;11.90;99.90;;;;;;5094619;28;20816;-68
2021/05/20 05:26:08;;;;;;;5.93;5.40;;;12.00;99.90;;;;;;5094705;28;20461;-67
2021/05/20 05:28:34;;;;;;;6.73;6.07;;;12.00;99.90;;;;;;5094547;28;20461;-67
2021/05/20 05:31:00;;;;;;;7.43;6.70;;;12.00;99.90;;;;;;5094568;28;20495;-67
2021/05/20 05:33:26;;;;;;;6.83;6.03;;;12.10;99.90;;;;;;5094055;28;20960;-67
2021/05/20 05:35:53;;;;;;;6.90;6.20;;;12.10;99.90;;;;;;5094708;28;20457;-68
2021/05/20 05:38:20;;;;;;;6.20;5.60;;;12.10;99.90;;;;;;5094157;28;20453;-67
2021/05/20 05:40:46;;;;;;;7.07;6.00;;;12.10;99.90;;;;;;5094085;28;20457;-67
2021/05/20 05:43:12;;;;;;;6.23;5.63;;;12.10;99.90;;;;;;5094212;28;20473;-67
2021/05/20 05:45:41;;;;;;;8.77;6.60;;;12.10;99.90;;;;;;5094279;28;20909;-67
2021/05/20 05:48:11;;;;;;;7.30;6.60;;;12.10;99.90;;;;;;5095156;28;20457;-67
2021/05/20 05:50:37;;;;;;;6.83;6.23;;;12.10;99.90;;;;;;5095108;28;20460;-67
2021/05/20 05:53:06;;;;;;;7.50;6.73;;;12.10;99.90;;;;;;5095488;28;20457;-66
2021/05/20 05:55:33;;;;;;;7.53;6.43;;;12.10;99.90;;;;;;5096121;28;20473;-67
2021/05/20 05:57:59;;;;;;;9.23;6.50;;;12.10;99.90;;;;;;5096800;28;20536;-68
2021/05/20 06:00:26;;;;;;;8.43;6.83;;;12.20;99.90;;;;;;5095131;28;20504;-67
2021/05/20 06:02:52;;;;;;;7.10;6.37;;;12.30;99.90;;;;;;5095551;28;20485;-67
2021/05/20 06:05:19;;;;;;;8.90;6.93;;;12.40;99.90;;;;;;5096772;28;20540;-68
2021/05/20 06:07:45;;;;;;;6.23;5.63;;;12.40;99.90;;;;;;5098838;28;20456;-67
2021/05/20 06:10:13;;;;;;;8.40;5.67;;;12.50;99.90;;;;;;5098322;28;20468;-68
2021/05/20 06:12:41;;;;;;;6.40;5.73;;;12.50;99.90;;;;;;5098493;28;20460;-67
2021/05/20 06:15:09;;;;;;;7.27;6.23;;;12.50;99.90;;;;;;5098523;28;20553;-67
2021/05/20 06:17:36;;;;;;;6.97;6.37;;;12.50;99.90;;;;;;5098427;28;20445;-67
2021/05/20 06:20:04;;;;;;;7.87;6.70;;;12.50;99.90;;;;;;5098243;28;20492;-67
2021/05/20 06:22:30;;;;;;;6.10;5.50;;;12.60;99.90;;;;;;5098257;28;20469;-67
2021/05/20 06:24:57;;;;;;;6.80;6.03;;;12.60;99.90;;;;;;5098038;28;20504;-67
2021/05/20 06:27:26;;;;;;;6.80;6.20;;;12.70;99.90;;;;;;5098401;28;20847;-67
2021/05/20 06:29:53;;;;;;;5.47;5.00;;;12.70;99.90;;;;;;5097988;28;20947;-67
2021/05/20 06:32:19;;;;;;;6.00;5.50;;;12.80;99.90;;;;;;5097871;28;20507;-68
2021/05/20 06:34:46;;;;;;;8.37;6.90;;;12.80;99.90;;;;;;5098284;28;20454;-67
2021/05/20 06:37:13;;;;;;;6.10;5.60;;;12.90;99.90;;;;;;5098498;28;20472;-67
2021/05/20 06:39:40;;;;;;;7.77;6.30;;;13.00;99.90;;;;;;5097382;28;20457;-67
2021/05/20 06:42:08;;;;;;;6.43;5.87;;;13.00;99.90;;;;;;5098474;28;20491;-67
2021/05/20 06:44:35;;;;;;;7.80;5.30;;;13.10;99.90;;;;;;5099254;28;20458;-67
2021/05/20 06:47:01;;;;;;;5.97;5.37;;;13.20;99.90;;;;;;5097195;28;20460;-67
2021/05/20 06:49:28;;;;;;;6.33;5.63;;;13.40;99.90;;;;;;5097229;28;20480;-67
2021/05/20 06:51:54;;;;;;;11.60;5.70;;;13.50;99.90;;;;;;5097328;28;20457;-67
2021/05/20 06:54:20;;;;;;;8.17;5.10;;;13.60;99.90;;;;;;5097128;28;20457;-68
2021/05/20 06:56:50;;;;;;;4.63;4.23;;;13.70;99.90;;;;;;5097249;28;20909;-67
2021/05/20 07:02:01;;;;;;;6.87;4.60;;;13.90;99.90;;;;;;5097989;28;20900;-67
2021/05/20 07:04:28;;;;;;;5.27;4.77;;;14.00;99.90;;;;;;5097036;28;20460;-67
2021/05/20 07:07:00;;;;;;;5.50;4.43;;;14.10;99.90;;;;;;5096891;28;20469;-67
2021/05/20 07:09:27;;;;;;;6.17;4.40;;;14.20;99.90;;;;;;5097588;28;20441;-67
2021/05/20 07:11:53;;;;;;;4.73;4.33;;;14.30;99.90;;;;;;5097054;28;20556;-67
2021/05/20 07:14:19;;;;;;;5.53;4.47;;;14.40;99.90;;;;;;5096927;28;20464;-67
2021/05/20 07:16:46;;;;;;;4.23;3.80;;;14.50;99.90;;;;;;5096510;28;20457;-67
2021/05/20 07:19:13;;;;;;;5.70;4.37;;;14.60;99.90;;;;;;5096933;28;20457;-67
2021/05/20 07:21:39;;;;;;;4.37;3.70;;;14.50;99.90;;;;;;5096887;28;20461;-67
2021/05/20 07:24:06;;;;;;;4.80;3.40;;;14.50;99.90;;;;;;5096921;28;20529;-66
2021/05/20 07:26:32;;;;;;;4.60;3.60;;;14.40;99.90;;;;;;5096976;28;20457;-67
2021/05/20 07:29:00;;;;;;;5.27;3.13;;;14.30;99.90;;;;;;5096581;28;20453;-68
2021/05/20 07:31:26;;;;;;;3.70;3.40;;;14.10;99.90;;;;;;5096163;28;20540;-67
2021/05/20 07:33:55;;;;;;;3.30;3.00;;;14.00;99.90;;;;;;5096296;28;20445;-67
2021/05/20 07:36:22;;;;;;;3.30;3.00;;;14.10;99.90;;;;;;5096185;28;20922;-68
2021/05/20 07:38:49;;;;;;;4.63;3.43;;;14.10;99.90;;;;;;5096138;28;20497;-68
2021/05/20 07:41:15;;;;;;;3.50;3.20;;;14.10;99.90;;;;;;5096307;28;20457;-69
2021/05/20 07:43:41;;;;;;;4.10;2.90;;;14.10;99.90;;;;;;5095887;28;20484;-68
2021/05/20 07:46:08;;;;;;;2.13;1.70;;;14.10;99.90;;;;;;5096103;28;20457;-66
2021/05/20 07:48:34;;;;;;;3.00;1.77;;;14.00;99.90;;;;;;5096028;28;20453;-67
2021/05/20 07:51:01;;;;;;;2.30;1.73;;;14.00;99.90;;;;;;5096097;28;20467;-67
2021/05/20 07:53:28;;;;;;;1.50;1.40;;;13.90;99.90;;;;;;5096876;28;20450;-68
2021/05/20 07:55:54;;;;;;;2.03;1.90;;;14.00;99.90;;;;;;5096129;28;20575;-67
2021/05/20 07:58:21;;;;;;;2.63;1.90;;;14.00;99.90;;;;;;5096439;28;20453;-67
2021/05/20 08:00:47;;;;;;;2.90;2.70;;;14.00;99.90;;;;;;5096280;28;20453;-68
2021/05/20 08:03:21;;;;;;;3.90;2.90;;;14.10;99.90;;;;;;5096139;28;20477;-67
2021/05/20 08:05:53;;;;;;;6.93;3.17;;;14.20;99.90;;;;;;5096737;28;20441;-67
2021/05/20 08:08:24;;;;;;;3.93;3.00;;;14.20;99.90;;;;;;5096197;28;20437;-67
2021/05/20 08:10:54;;;;;;;3.77;2.90;;;14.20;99.90;;;;;;5096058;28;20487;-67
2021/05/20 08:13:20;;;;;;;4.00;2.33;;;14.20;99.90;;;;;;5096095;28;20548;-67
2021/05/20 08:15:46;;;;;;;2.73;2.53;;;14.20;99.90;;;;;;5095258;28;20468;-67
2021/05/20 08:18:14;;;;;;;3.73;3.10;;;14.20;99.90;;;;;;5095358;28;20441;-67
2021/05/20 08:20:40;;;;;;;3.40;2.40;;;14.30;99.90;;;;;;5095302;28;20544;-67
2021/05/20 08:23:07;;;;;;;2.47;1.93;;;14.40;99.90;;;;;;5095237;28;20500;-67
2021/05/20 08:25:33;;;;;;;2.17;1.97;;;14.40;99.90;;;;;;5095720;28;20453;-67
2021/05/20 08:28:00;;;;;;;2.80;2.00;;;14.50;99.90;;;;;;5095603;28;21030;-67
2021/05/20 08:30:27;;;;;;;3.87;2.13;;;14.50;99.90;;;;;;5094782;28;20457;-67
2021/05/20 08:32:53;;;;;;;2.53;2.30;;;14.60;99.90;;;;;;5095326;28;20481;-68
2021/05/20 08:35:19;;;;;;;3.47;2.07;;;14.80;99.90;;;;;;5095389;28;20453;-68
2021/05/20 08:37:46;;;;;;;2.30;2.10;;;15.00;99.90;;;;;;5095192;28;20467;-68
2021/05/20 08:40:13;;;;;;;4.90;2.13;;;15.00;99.90;;;;;;5095420;28;20818;-68
2021/05/20 08:42:40;;;;;;;1.60;1.50;;;15.00;99.90;;;;;;5095051;28;20488;-68
2021/05/20 08:45:16;;;;;;;2.30;2.03;;;15.00;99.90;;;;;;5094881;28;20469;-68
2021/05/20 08:47:43;;;;;;;3.80;2.27;;;14.70;99.90;;;;;;5095318;28;20452;-67
2021/05/20 08:50:10;;;;;;;1.90;1.70;;;14.60;99.90;;;;;;5095283;28;20456;-67
2021/05/20 08:52:37;;;;;;;1.50;1.40;;;14.60;99.90;;;;;;5095677;28;20548;-67
2021/05/20 08:55:05;;;;;;;5.33;1.50;;;14.70;99.90;;;;;;5096598;28;20495;-67
2021/05/20 08:57:31;;;;;;;2.03;1.83;;;14.70;99.90;;;;;;5095212;28;20457;-67
2021/05/20 08:59:57;;;;;;;2.40;1.97;;;14.80;99.90;;;;;;5095135;28;20454;-67
2021/05/20 09:02:27;;;;;;;2.00;1.90;;;14.90;99.90;;;;;;5095033;28;20457;-68
2021/05/20 09:04:58;;;;;;;2.30;1.43;;;15.00;99.90;;;;;;5095107;28;20963;-68
2021/05/20 09:07:30;;;;;;;2.90;1.60;;;14.90;99.90;;;;;;5095159;28;20479;-67
2021/05/20 09:10:08;;;;;;;1.50;1.40;;;14.90;99.90;;;;;;5094836;28;20475;-67
2021/05/20 09:12:34;;;;;;;2.33;1.33;;;14.80;99.90;;;;;;5095352;28;20433;-67
2021/05/20 09:15:00;;;;;;;1.60;1.50;;;14.70;99.90;;;;;;5095606;28;20458;-67
2021/05/20 09:17:27;;;;;;;2.03;1.50;;;14.70;99.90;;;;;;5095023;28;20461;-66
2021/05/20 09:19:58;;;;;;;1.63;1.53;;;14.90;99.90;;;;;;5095169;28;20784;-67
2021/05/20 09:22:24;;;;;;;2.47;1.67;;;14.90;99.90;;;;;;5094894;28;20939;-67
2021/05/20 09:24:52;;;;;;;2.37;1.73;;;14.80;99.90;;;;;;5095391;28;20465;-67
2021/05/20 09:27:28;;;;;;;2.07;1.60;;;14.70;99.90;;;;;;5095261;28;20548;-67
2021/05/20 09:30:17;;;;;;;2.20;1.60;;;14.70;99.90;;;;;;5094963;28;20449;-67
2021/05/20 09:32:46;;;;;;;3.10;2.03;;;14.70;99.90;;;;;;5094929;28;20487;-67
2021/05/20 09:35:13;;;;;;;2.90;1.50;;;14.60;99.90;;;;;;5095540;28;20453;-67
2021/05/20 09:37:52;;;;;;;2.50;2.27;;;14.60;99.90;;;;;;5095136;28;20480;-67
2021/05/20 09:40:19;;;;;;;4.93;1.67;;;14.80;99.90;;;;;;5095940;28;20457;-68
2021/05/20 09:42:47;;;;;;;4.67;1.87;;;15.00;99.90;;;;;;5098563;28;20483;-67
2021/05/20 09:45:16;;;;;;;3.37;2.50;;;14.90;99.90;;;;;;5098748;28;20449;-68
2021/05/20 09:47:44;;;;;;;2.43;2.23;;;14.80;99.90;;;;;;5100387;28;20457;-66
2021/05/20 09:50:12;;;;;;;3.97;2.33;;;14.80;99.90;;;;;;5099145;28;20468;-67
2021/05/20 09:52:38;;;;;;;2.57;2.07;;;14.90;99.90;;;;;;5099568;28;20453;-67
2021/05/20 09:55:22;;;;;;;1.90;1.80;;;14.90;99.90;;;;;;5098750;28;20446;-67
2021/05/20 09:57:48;;;;;;;2.47;1.80;;;14.90;99.90;;;;;;5099219;28;20441;-68
2021/05/20 10:00:16;;;;;;;2.07;1.50;;;15.00;99.90;;;;;;5098267;28;20449;-68
2021/05/20 10:02:47;;;;;;;2.43;1.80;;;15.10;99.90;;;;;;5098430;28;20477;-67
2021/05/20 10:05:23;;;;;;;2.13;2.03;;;15.10;99.90;;;;;;5098849;28;20444;-68
2021/05/20 10:07:50;;;;;;;1.67;1.57;;;15.20;99.90;;;;;;5098169;28;20457;-68
2021/05/20 10:10:18;;;;;;;2.30;1.67;;;15.40;99.90;;;;;;5098046;28;20457;-67
2021/05/20 10:12:45;;;;;;;3.70;1.70;;;15.60;99.90;;;;;;5099450;28;20570;-67
2021/05/20 10:15:14;;;;;;;2.20;2.10;;;15.70;99.90;;;;;;5099391;28;20514;-68
2021/05/20 10:17:41;;;;;;;2.63;2.07;;;15.70;99.90;;;;;;5098140;28;20453;-67
2021/05/20 10:20:11;;;;;;;5.03;2.50;;;15.70;99.90;;;;;;5098319;28;20761;-67
2021/05/20 10:22:41;;;;;;;2.80;1.50;;;15.70;99.90;;;;;;5097919;28;20477;-68
2021/05/20 10:25:08;;;;;;;2.83;1.97;;;15.90;99.90;;;;;;5098757;28;20466;-68
2021/05/20 10:27:36;;;;;;;2.03;1.80;;;15.80;99.90;;;;;;5098719;28;20468;-67
2021/05/20 10:30:05;;;;;;;3.87;1.93;;;15.90;99.90;;;;;;5101388;28;20575;-68
2021/05/20 10:32:32;;;;;;;2.00;1.90;;;15.90;99.90;;;;;;5104752;28;20500;-68
2021/05/20 10:35:00;;;;;;;1.60;1.50;;;15.80;99.90;;;;;;5101965;28;20445;-68
2021/05/20 10:37:36;;;;;;;3.10;1.73;;;15.80;99.90;;;;;;5098970;28;20817;-68
2021/05/20 10:40:05;;;;;;;2.00;1.90;;;15.80;99.90;;;;;;5097846;28;20509;-67
2021/05/20 10:42:36;;;;;;;1.90;1.80;;;15.80;99.90;;;;;;5097899;28;20465;-67
2021/05/20 10:45:21;;;;;;;2.20;1.40;;;15.90;99.90;;;;;;5097272;28;20562;-67
2021/05/20 10:48:19;;;;;;;1.60;1.50;;;16.10;99.90;;;;;;5097430;28;20946;-68
2021/05/20 10:51:20;;;;;;;2.13;1.70;;;16.00;99.90;;;;;;5097667;28;20978;-68
2021/05/20 10:54:09;;;;;;;2.53;1.63;;;16.00;99.90;;;;;;5098469;28;20429;-68
2021/05/20 10:56:55;;;;;;;1.80;1.70;;;15.90;99.90;;;;;;5104028;28;20445;-68
2021/05/20 10:59:32;;;;;;;2.03;1.93;;;16.10;99.90;;;;;;5098031;28;20446;-67
2021/05/20 11:01:59;;;;;;;2.47;1.73;;;16.10;99.90;;;;;;5099204;28;20488;-69
2021/05/20 11:04:34;;;;;;;2.10;1.90;;;16.10;99.90;;;;;;5100316;28;20483;-69
2021/05/20 11:07:01;;;;;;;2.17;1.60;;;16.00;99.90;;;;;;5099683;28;20885;-69
2021/05/20 11:09:43;;;;;;;3.80;2.17;;;16.00;99.90;;;;;;5102037;28;20510;-70
2021/05/20 11:12:10;;;;;;;2.03;1.73;;;15.90;99.90;;;;;;5100493;28;20441;-70
2021/05/20 11:14:41;;;;;;;2.20;2.00;;;16.00;99.90;;;;;;5099892;28;20457;-70
2021/05/20 11:17:30;;;;;;;1.90;1.80;;;16.10;99.90;;;;;;5101198;28;20586;-70
2021/05/20 11:20:42;;;;;;;2.30;2.10;;;16.70;99.90;;;;;;5101040;28;20568;-70
2021/05/20 11:23:23;;;;;;;7.80;6.10;;;17.30;99.90;;;;;;5100460;28;20937;-71
2021/05/20 11:26:16;;;;;;;3.63;1.70;;;18.30;1.00;;;;;;5100900;28;20468;-70
2021/05/20 11:28:45;;;;;;;2.43;1.97;;;19.10;1.00;;;;;;5100332;28;20438;-70
2021/05/20 11:31:12;;;;;;;2.83;1.53;;;19.20;1.00;;;;;;5099119;28;20457;-70
2021/05/20 11:33:48;;;;;;;1.90;1.37;;;19.50;1.00;;;;;;5098969;28;20473;-70
2021/05/20 11:36:15;;;;;;;1.50;1.40;;;19.60;1.00;;;;;;5099785;28;20441;-70
2021/05/20 11:38:59;;;;;;;1.60;1.43;;;19.80;1.00;;;;;;5099240;28;20458;-70
2021/05/20 11:41:29;;;;;;;1.90;1.50;;;20.50;1.00;;;;;;5100398;28;20453;-71
2021/05/20 11:44:07;;;;;;;2.23;1.53;;;21.10;1.00;;;;;;5099937;28;20462;-71
2021/05/20 11:46:35;;;;;;;2.07;1.73;;;21.20;1.00;;;;;;5100922;28;20917;-72
2021/05/20 11:49:03;;;;;;;1.93;1.67;;;21.40;1.00;;;;;;5100594;28;20889;-70
2021/05/20 11:51:48;;;;;;;3.90;1.40;;;21.30;1.00;;;;;;5100846;28;20457;-69
2021/05/20 11:54:16;;;;;;;1.40;1.10;;;20.80;1.00;;;;;;5100617;28;20510;-69
2021/05/20 11:56:48;;;;;;;1.13;0.90;;;20.80;1.00;;;;;;5099449;28;20461;-69
2021/05/20 11:59:17;;;;;;;1.20;1.00;;;20.50;1.00;;;;;;5099141;28;20448;-70
2021/05/20 12:01:45;;;;;;;2.80;0.80;;;20.30;1.00;;;;;;5100458;28;20449;-71
2021/05/20 12:04:12;;;;;;;1.43;0.87;;;20.00;1.00;;;;;;5100256;28;20980;-69
2021/05/20 12:06:39;;;;;;;2.47;1.00;;;20.00;1.00;;;;;;5099440;28;20457;-71
2021/05/20 12:09:15;;;;;;;1.23;0.93;;;20.20;1.00;;;;;;5099349;28;20827;-69
2021/05/20 12:11:42;;;;;;;1.10;0.90;;;20.00;1.00;;;;;;5100936;28;20479;-68
2021/05/20 12:14:26;;;;;;;3.90;0.93;;;19.70;1.00;;;;;;5101264;28;20453;-69
2021/05/20 12:17:07;;;;;;;1.10;1.00;;;20.00;1.00;;;;;;5101552;28;20469;-70
2021/05/20 12:19:39;;;;;;;5.10;1.07;;;20.10;1.00;;;;;;5101545;28;20442;-69
2021/05/20 12:22:11;;;;;;;1.10;1.00;;;19.90;1.00;;;;;;5101717;28;20448;-69
2021/05/20 12:24:40;;;;;;;2.57;0.97;;;20.20;1.00;;;;;;5101910;28;20530;-69
2021/05/20 12:27:22;;;;;;;1.10;0.90;;;20.60;1.00;;;;;;5101494;28;20468;-69
2021/05/20 12:29:51;;;;;;;1.20;1.07;;;20.80;1.00;;;;;;5100595;28;20437;-69
2021/05/20 12:32:33;;;;;;;1.10;0.80;;;21.00;1.00;;;;;;5100046;28;20481;-70
2021/05/20 12:35:18;;;;;;;1.73;1.10;;;21.20;1.00;;;;;;5100405;28;20449;-69
2021/05/20 12:38:00;;;;;;;2.80;1.47;;;21.50;1.00;;;;;;5101104;28;20536;-69
2021/05/20 12:40:29;;;;;;;1.40;1.27;;;21.20;1.00;;;;;;5100715;28;20989;-69
2021/05/20 12:43:15;;;;;;;1.87;1.10;;;20.90;1.00;;;;;;5099407;28;20477;-69
2021/05/20 12:45:49;;;;;;;1.60;1.00;;;20.90;1.00;;;;;;5098994;28;20559;-70
2021/05/20 12:48:21;;;;;;;1.87;1.47;;;20.10;1.00;;;;;;5099474;28;20518;-69
2021/05/20 12:50:48;;;;;;;1.10;1.00;;;19.00;1.00;;;;;;5099565;28;20461;-68
2021/05/20 12:53:25;;;;;;;1.60;1.20;;;18.40;1.00;;;;;;5099228;28;20454;-69
2021/05/20 12:55:53;;;;;;;1.50;1.40;;;18.00;1.00;;;;;;5099859;28;20452;-69
2021/05/20 12:58:19;;;;;;;1.77;1.20;;;17.80;1.00;;;;;;5099129;28;20468;-69
2021/05/20 13:00:58;;;;;;;1.30;1.20;;;17.60;1.00;;;;;;5099387;28;20468;-69